createdAt,value
2023-04-18T00:00:10.516Z,32.45
2023-04-18T00:01:10.643Z,32.49
2023-04-18T00:02:10.930Z,32.48
2023-04-18T00:03:11.207Z,32.47
2023-04-18T00:04:11.390Z,32.47
2023-04-18T00:05:11.154Z,32.48
2023-04-18T00:06:11.154Z,32.48
2023-04-18T00:07:11.145Z,32.50
2023-04-18T00:08:11.200Z,32.48
2023-04-18T00:09:11.295Z,32.47
2023-04-18T00:10:11.350Z,32.50
2023-04-18T00:11:11.386Z,32.52
2023-04-18T00:12:11.391Z,32.49
2023-04-18T00:13:11.447Z,32.50
2023-04-18T00:14:11.657Z,32.52
2023-04-18T00:15:11.523Z,32.50
2023-04-18T00:16:11.562Z,32.51
2023-04-18T00:17:11.615Z,32.52
2023-04-18T00:18:11.582Z,32.51
2023-04-18T00:19:11.659Z,32.51
2023-04-18T00:20:11.661Z,32.54
2023-04-18T00:21:11.680Z,32.54
2023-04-18T00:22:11.673Z,32.53
2023-04-18T00:23:13.486Z,32.53
2023-04-18T00:24:11.814Z,32.53
2023-04-18T00:25:11.781Z,32.53
2023-04-18T00:26:11.730Z,32.56
2023-04-18T00:27:11.746Z,32.53
2023-04-18T00:28:11.752Z,32.54
2023-04-18T00:29:11.768Z,32.54
2023-04-18T00:30:11.782Z,32.54
2023-04-18T00:31:11.813Z,32.54
2023-04-18T00:32:11.853Z,32.56
2023-04-18T00:33:11.847Z,32.56
2023-04-18T00:34:12.065Z,32.57
2023-04-18T00:35:11.864Z,32.56
2023-04-18T00:36:11.917Z,32.57
2023-04-18T00:37:11.916Z,32.58
2023-04-18T00:38:11.918Z,32.58
2023-04-18T00:39:11.928Z,32.60
2023-04-18T00:40:11.971Z,32.57
2023-04-18T00:41:12.050Z,32.57
2023-04-18T00:42:12.067Z,32.58
2023-04-18T00:43:12.056Z,32.58
2023-04-18T00:44:12.219Z,32.58
2023-04-18T00:45:12.138Z,32.60
2023-04-18T00:46:12.222Z,32.59
2023-04-18T00:47:12.249Z,32.56
2023-04-18T00:48:12.228Z,32.57
2023-04-18T00:49:12.253Z,32.57
2023-04-18T00:50:12.318Z,32.59
2023-04-18T00:51:12.315Z,32.58
2023-04-18T00:52:12.383Z,32.60
2023-04-18T00:53:12.438Z,32.59
2023-04-18T00:54:12.544Z,32.60
2023-04-18T00:55:12.499Z,32.59
2023-04-18T00:56:12.512Z,32.58
2023-04-18T00:57:12.521Z,32.60
2023-04-18T00:58:12.524Z,32.60
2023-04-18T00:59:12.573Z,32.61
2023-04-18T01:00:12.590Z,32.62
2023-04-18T01:01:12.669Z,32.61
2023-04-18T01:02:12.608Z,32.62
2023-04-18T01:03:12.659Z,32.64
2023-04-18T01:04:13.066Z,32.62
2023-04-18T01:05:12.620Z,32.64
2023-04-18T01:06:12.620Z,32.64
2023-04-18T01:07:12.647Z,32.61
2023-04-18T01:08:12.633Z,32.64
2023-04-18T01:09:12.663Z,32.62
2023-04-18T01:10:12.649Z,32.62
2023-04-18T01:11:12.666Z,32.62
2023-04-18T01:12:12.668Z,32.64
2023-04-18T01:13:12.676Z,32.64
2023-04-18T01:14:12.894Z,32.64
2023-04-18T01:15:12.698Z,32.64
2023-04-18T01:16:12.718Z,32.66
2023-04-18T01:17:12.697Z,32.64
2023-04-18T01:18:12.705Z,32.66
2023-04-18T01:19:12.718Z,32.66
2023-04-18T01:20:12.693Z,32.65
2023-04-18T01:21:12.684Z,32.64
2023-04-18T01:22:12.633Z,32.67
2023-04-18T01:23:12.711Z,32.67
2023-04-18T01:24:12.830Z,32.66
2023-04-18T01:25:12.645Z,32.64
2023-04-18T01:26:12.661Z,32.64
2023-04-18T01:27:12.656Z,32.65
2023-04-18T01:28:12.675Z,32.67
2023-04-18T01:29:12.779Z,32.70
2023-04-18T01:30:12.650Z,32.67
2023-04-18T01:31:12.689Z,32.66
2023-04-18T01:32:12.662Z,32.67
2023-04-18T01:33:12.674Z,32.69
2023-04-18T01:34:12.838Z,32.66
2023-04-18T01:35:12.685Z,32.68
2023-04-18T01:36:12.680Z,32.69
2023-04-18T01:37:12.629Z,32.70
2023-04-18T01:38:12.650Z,32.68
2023-04-18T01:39:12.651Z,32.68
2023-04-18T01:40:12.655Z,32.70
2023-04-18T01:41:12.653Z,32.70
2023-04-18T01:42:12.931Z,32.71
2023-04-18T01:43:12.684Z,32.70
2023-04-18T01:44:12.847Z,32.70
2023-04-18T01:45:12.653Z,32.70
2023-04-18T01:46:12.696Z,32.72
2023-04-18T01:47:12.653Z,32.71
2023-04-18T01:48:12.685Z,32.72
2023-04-18T01:49:12.678Z,32.70
2023-04-18T01:50:12.684Z,32.71
2023-04-18T01:51:12.681Z,32.72
2023-04-18T01:52:12.694Z,32.73
2023-04-18T01:53:12.704Z,32.72
2023-04-18T01:54:12.979Z,32.73
2023-04-18T01:55:12.745Z,32.72
2023-04-18T01:56:12.721Z,32.71
2023-04-18T01:57:12.676Z,32.75
2023-04-18T01:58:12.669Z,32.74
2023-04-18T01:59:12.691Z,32.74
2023-04-18T02:00:12.699Z,32.73
2023-04-18T02:01:12.733Z,32.75
2023-04-18T02:02:12.790Z,32.74
2023-04-18T02:03:13.069Z,32.75
2023-04-18T02:04:12.939Z,32.75
2023-04-18T02:05:12.679Z,32.76
2023-04-18T02:06:12.666Z,32.76
2023-04-18T02:07:12.683Z,32.73
2023-04-18T02:08:12.696Z,32.74
2023-04-18T02:09:12.712Z,32.74
2023-04-18T02:10:12.705Z,32.76
2023-04-18T02:11:12.716Z,32.75
2023-04-18T02:12:12.751Z,32.75
2023-04-18T02:13:12.746Z,32.76
2023-04-18T02:14:12.972Z,32.76
2023-04-18T02:15:12.682Z,32.75
2023-04-18T02:16:12.719Z,32.77
2023-04-18T02:17:12.701Z,32.76
2023-04-18T02:18:12.765Z,32.76
2023-04-18T02:19:12.712Z,32.78
2023-04-18T02:20:12.729Z,32.78
2023-04-18T02:21:12.728Z,32.77
2023-04-18T02:22:12.747Z,32.79
2023-04-18T02:23:12.723Z,32.76
2023-04-18T02:24:12.919Z,32.78
2023-04-18T02:25:12.715Z,32.75
2023-04-18T02:26:12.723Z,32.79
2023-04-18T02:27:12.732Z,32.77
2023-04-18T02:28:12.740Z,32.75
2023-04-18T02:29:12.741Z,32.77
2023-04-18T02:30:12.751Z,32.80
2023-04-18T02:31:12.754Z,32.78
2023-04-18T02:32:12.862Z,32.79
2023-04-18T02:33:12.705Z,32.79
2023-04-18T02:34:13.001Z,32.78
2023-04-18T02:35:12.825Z,32.79
2023-04-18T02:36:12.777Z,32.80
2023-04-18T02:37:12.792Z,32.80
2023-04-18T02:38:12.748Z,32.80
2023-04-18T02:39:12.817Z,32.80
2023-04-18T02:40:12.814Z,32.81
2023-04-18T02:41:12.758Z,32.81
2023-04-18T02:42:12.768Z,32.81
2023-04-18T02:43:12.772Z,32.80
2023-04-18T02:44:13.109Z,32.81
2023-04-18T02:45:12.787Z,32.81
2023-04-18T02:46:12.869Z,32.81
2023-04-18T02:47:12.801Z,32.81
2023-04-18T02:48:12.827Z,32.81
2023-04-18T02:49:12.819Z,32.81
2023-04-18T02:50:12.825Z,32.82
2023-04-18T02:51:12.822Z,32.82
2023-04-18T02:52:12.837Z,32.81
2023-04-18T02:53:12.848Z,32.82
2023-04-18T02:54:13.085Z,32.82
2023-04-18T02:55:12.868Z,32.81
2023-04-18T02:56:12.811Z,32.83
2023-04-18T02:57:12.871Z,32.82
2023-04-18T02:58:12.879Z,32.84
2023-04-18T02:59:12.832Z,32.83
2023-04-18T03:00:12.913Z,32.84
2023-04-18T03:01:12.921Z,32.83
2023-04-18T03:02:12.952Z,32.84
2023-04-18T03:03:13.010Z,32.84
2023-04-18T03:04:13.171Z,32.84
2023-04-18T03:05:12.969Z,32.81
2023-04-18T03:06:12.936Z,32.85
2023-04-18T03:07:12.907Z,32.84
2023-04-18T03:08:12.899Z,32.86
2023-04-18T03:09:12.902Z,32.83
2023-04-18T03:10:12.976Z,32.87
2023-04-18T03:11:12.960Z,32.85
2023-04-18T03:12:12.942Z,32.85
2023-04-18T03:13:12.984Z,32.86
2023-04-18T03:14:13.156Z,32.85
2023-04-18T03:15:12.975Z,32.85
2023-04-18T03:16:13.021Z,32.86
2023-04-18T03:17:12.963Z,32.87
2023-04-18T03:18:12.971Z,32.87
2023-04-18T03:19:12.997Z,32.84
2023-04-18T03:20:12.990Z,32.86
2023-04-18T03:21:12.990Z,32.85
2023-04-18T03:22:12.987Z,32.86
2023-04-18T03:23:13.044Z,32.86
2023-04-18T03:24:13.240Z,32.88
2023-04-18T03:25:13.018Z,32.89
2023-04-18T03:26:13.016Z,32.85
2023-04-18T03:27:12.979Z,32.87
2023-04-18T03:28:13.030Z,32.87
2023-04-18T03:29:13.041Z,32.86
2023-04-18T03:30:13.012Z,32.87
2023-04-18T03:31:13.069Z,32.87
2023-04-18T03:32:13.067Z,32.87
2023-04-18T03:33:13.073Z,32.88
2023-04-18T03:34:13.277Z,32.88
2023-04-18T03:35:13.098Z,32.89
2023-04-18T03:36:13.197Z,32.90
2023-04-18T03:37:13.128Z,32.89
2023-04-18T03:38:13.260Z,32.88
2023-04-18T03:39:13.107Z,32.90
2023-04-18T03:40:13.129Z,32.90
2023-04-18T03:41:13.124Z,32.90
2023-04-18T03:42:13.140Z,32.92
2023-04-18T03:43:13.142Z,32.91
2023-04-18T03:44:13.408Z,32.91
2023-04-18T03:45:13.221Z,32.91
2023-04-18T03:46:13.205Z,32.91
2023-04-18T03:47:13.201Z,32.91
2023-04-18T03:48:13.207Z,32.92
2023-04-18T03:49:13.178Z,32.91
2023-04-18T03:50:13.228Z,32.91
2023-04-18T03:51:13.200Z,32.94
2023-04-18T03:52:13.249Z,32.92
2023-04-18T03:53:13.252Z,32.91
2023-04-18T03:54:13.323Z,32.92
2023-04-18T03:55:13.262Z,32.92
2023-04-18T03:56:13.281Z,32.94
2023-04-18T03:57:13.285Z,32.95
2023-04-18T03:58:13.279Z,32.93
2023-04-18T03:59:13.302Z,32.95
2023-04-18T04:00:13.294Z,32.94
2023-04-18T04:01:13.306Z,32.95
2023-04-18T04:02:13.395Z,32.93
2023-04-18T04:03:13.468Z,32.95
2023-04-18T04:04:13.571Z,32.95
2023-04-18T04:05:13.336Z,32.94
2023-04-18T04:06:13.338Z,32.94
2023-04-18T04:07:13.340Z,32.93
2023-04-18T04:08:13.412Z,32.94
2023-04-18T04:09:13.365Z,32.91
2023-04-18T04:10:13.373Z,32.91
2023-04-18T04:11:13.374Z,32.89
2023-04-18T04:12:13.440Z,32.86
2023-04-18T04:13:13.390Z,32.85
2023-04-18T04:14:13.768Z,32.77
2023-04-18T04:15:13.429Z,32.79
2023-04-18T04:16:13.467Z,32.79
2023-04-18T04:17:13.410Z,32.74
2023-04-18T04:18:13.488Z,32.77
2023-04-18T04:19:13.515Z,32.77
2023-04-18T04:20:13.516Z,32.73
2023-04-18T04:21:13.559Z,32.75
2023-04-18T04:22:13.545Z,32.73
2023-04-18T04:23:13.493Z,32.73
2023-04-18T04:24:13.673Z,32.70
2023-04-18T04:25:13.565Z,32.71
2023-04-18T04:26:13.561Z,32.70
2023-04-18T04:27:13.542Z,32.72
2023-04-18T04:28:13.654Z,32.69
2023-04-18T04:29:13.584Z,32.66
2023-04-18T04:30:13.715Z,32.63
2023-04-18T04:31:13.620Z,32.65
2023-04-18T04:32:13.604Z,32.66
2023-04-18T04:33:13.625Z,32.66
2023-04-18T04:34:13.776Z,32.64
2023-04-18T04:35:14.456Z,32.63
2023-04-18T04:36:13.673Z,32.65
2023-04-18T04:37:13.677Z,32.66
2023-04-18T04:38:13.613Z,32.69
2023-04-18T04:39:13.624Z,32.70
2023-04-18T04:40:13.625Z,32.72
2023-04-18T04:41:13.633Z,32.71
2023-04-18T04:42:13.706Z,32.73
2023-04-18T04:43:13.709Z,32.72
2023-04-18T04:44:13.793Z,32.75
2023-04-18T04:45:13.746Z,32.73
2023-04-18T04:46:13.897Z,32.73
2023-04-18T04:47:13.672Z,32.74
2023-04-18T04:48:13.675Z,32.74
2023-04-18T04:49:13.693Z,32.74
2023-04-18T04:50:13.759Z,32.76
2023-04-18T04:51:13.744Z,32.77
2023-04-18T04:52:13.769Z,32.78
2023-04-18T04:53:13.756Z,32.79
2023-04-18T04:54:14.245Z,32.78
2023-04-18T04:55:13.770Z,32.78
2023-04-18T04:56:13.775Z,32.78
2023-04-18T04:57:13.783Z,32.80
2023-04-18T04:58:13.787Z,32.79
2023-04-18T04:59:13.797Z,32.77
2023-04-18T05:00:13.833Z,32.81
2023-04-18T05:01:13.884Z,32.80
2023-04-18T05:02:13.923Z,32.81
2023-04-18T05:03:14.091Z,32.80
2023-04-18T05:04:14.286Z,32.74
2023-04-18T05:05:13.859Z,32.71
2023-04-18T05:06:13.875Z,32.70
2023-04-18T05:07:13.908Z,32.66
2023-04-18T05:08:13.972Z,32.66
2023-04-18T05:09:13.928Z,32.66
2023-04-18T05:10:13.942Z,32.71
2023-04-18T05:11:13.956Z,32.70
2023-04-18T05:12:13.939Z,32.69
2023-04-18T05:13:14.024Z,32.69
2023-04-18T05:14:14.139Z,32.69
2023-04-18T05:15:14.011Z,32.65
2023-04-18T05:16:14.072Z,32.66
2023-04-18T05:17:14.050Z,32.66
2023-04-18T05:18:14.061Z,32.67
2023-04-18T05:19:14.057Z,32.64
2023-04-18T05:20:14.069Z,32.63
2023-04-18T05:21:14.071Z,32.66
2023-04-18T05:22:14.075Z,32.65
2023-04-18T05:23:14.131Z,32.64
2023-04-18T05:24:14.417Z,32.62
2023-04-18T05:25:14.159Z,32.64
2023-04-18T05:26:14.145Z,32.61
2023-04-18T05:27:14.770Z,32.60
2023-04-18T05:28:14.167Z,32.60
2023-04-18T05:29:14.166Z,32.61
2023-04-18T05:30:14.187Z,32.57
2023-04-18T05:31:14.216Z,32.54
2023-04-18T05:32:14.182Z,32.51
2023-04-18T05:33:14.204Z,32.51
2023-04-18T05:34:14.422Z,32.52
2023-04-18T05:35:14.263Z,32.49
2023-04-18T05:36:14.228Z,32.34
2023-04-18T05:37:14.330Z,32.32
2023-04-18T05:38:14.299Z,32.52
2023-04-18T05:39:14.333Z,33.05
2023-04-18T05:40:14.373Z,33.30
2023-04-18T05:41:14.443Z,32.00
2023-04-18T05:42:14.448Z,31.15
2023-04-18T05:43:14.483Z,30.73
2023-04-18T05:44:14.531Z,30.64
2023-04-18T05:45:14.598Z,31.03
2023-04-18T05:46:14.544Z,30.94
2023-04-18T05:47:14.566Z,31.09
2023-04-18T05:48:14.566Z,31.53
2023-04-18T05:49:14.622Z,32.01
2023-04-18T05:50:14.638Z,32.23
2023-04-18T05:51:15.029Z,32.52
2023-04-18T05:52:14.696Z,32.87
2023-04-18T05:53:14.717Z,33.20
2023-04-18T05:54:14.884Z,33.32
2023-04-18T05:55:14.719Z,33.32
2023-04-18T05:56:14.844Z,33.58
2023-04-18T05:57:15.040Z,33.71
2023-04-18T05:58:14.884Z,33.82
2023-04-18T05:59:16.523Z,33.88
2023-04-18T06:00:15.005Z,33.96
2023-04-18T06:01:15.536Z,33.99
2023-04-18T06:02:15.063Z,34.20
2023-04-18T06:03:15.199Z,34.24
2023-04-18T06:04:15.358Z,34.29
2023-04-18T06:05:15.448Z,34.28
2023-04-18T06:06:15.105Z,34.37
2023-04-18T06:07:15.573Z,34.44
2023-04-18T06:08:15.111Z,34.51
2023-04-18T06:09:15.051Z,34.58
2023-04-18T06:10:15.063Z,34.73
2023-04-18T06:11:15.079Z,34.95
2023-04-18T06:12:15.065Z,34.93
2023-04-18T06:13:15.079Z,35.05
2023-04-18T06:14:15.446Z,35.01
2023-04-18T06:15:15.209Z,35.03
2023-04-18T06:16:15.288Z,35.03
2023-04-18T06:17:15.213Z,35.12
2023-04-18T06:18:15.229Z,35.19
2023-04-18T06:19:15.546Z,35.28
2023-04-18T06:20:15.346Z,35.29
2023-04-18T06:21:17.493Z,35.43
2023-04-18T06:22:16.025Z,35.45
2023-04-18T06:23:15.456Z,35.50
2023-04-18T06:24:15.859Z,35.39
2023-04-18T06:25:15.596Z,35.46
2023-04-18T06:26:15.644Z,35.49
2023-04-18T06:27:30.262Z,35.60
2023-04-18T06:28:16.742Z,35.65
2023-04-18T06:29:16.027Z,35.72
2023-04-18T06:30:15.716Z,35.95
2023-04-18T06:31:16.050Z,36.00
2023-04-18T06:32:15.737Z,36.03
2023-04-18T06:33:16.641Z,35.96
2023-04-18T06:34:16.048Z,35.99
2023-04-18T06:35:16.056Z,36.15
2023-04-18T06:36:15.721Z,36.15
2023-04-18T06:37:15.771Z,35.82
2023-04-18T06:38:15.891Z,34.06
2023-04-18T06:39:15.888Z,33.08
2023-04-18T06:40:15.894Z,32.75
2023-04-18T06:41:15.918Z,33.52
2023-04-18T06:42:15.920Z,34.32
2023-04-18T06:43:15.914Z,34.73
2023-04-18T06:44:16.038Z,34.93
2023-04-18T06:45:15.913Z,35.05
2023-04-18T06:46:16.008Z,35.10
2023-04-18T06:47:15.896Z,35.05
2023-04-18T06:48:16.043Z,35.12
2023-04-18T06:49:15.899Z,35.17
2023-04-18T06:50:15.964Z,35.31
2023-04-18T06:51:16.017Z,35.37
2023-04-18T06:52:16.074Z,35.41
2023-04-18T06:53:16.651Z,35.45
2023-04-18T06:54:16.299Z,35.72
2023-04-18T06:55:16.320Z,35.52
2023-04-18T06:56:16.296Z,35.53
2023-04-18T06:57:16.378Z,35.57
2023-04-18T06:58:16.419Z,35.61
2023-04-18T06:59:16.639Z,35.72
2023-04-18T07:00:16.633Z,35.75
2023-04-18T07:01:16.761Z,36.06
2023-04-18T07:02:16.669Z,36.04
2023-04-18T07:03:16.899Z,36.22
2023-04-18T07:04:17.214Z,36.06
2023-04-18T07:05:16.846Z,36.11
2023-04-18T07:06:16.900Z,36.15
2023-04-18T07:07:16.897Z,36.21
2023-04-18T07:08:16.960Z,36.22
2023-04-18T07:09:16.997Z,36.28
2023-04-18T07:10:17.026Z,36.38
2023-04-18T07:11:17.076Z,36.69
2023-04-18T07:12:17.120Z,36.68
2023-04-18T07:13:17.182Z,36.81
2023-04-18T07:14:17.346Z,36.74
2023-04-18T07:15:17.342Z,36.89
2023-04-18T07:16:17.271Z,36.92
2023-04-18T07:17:17.364Z,37.01
2023-04-18T07:18:30.317Z,37.01
2023-04-18T07:19:18.407Z,36.98
2023-04-18T07:20:17.443Z,36.98
2023-04-18T07:21:17.387Z,37.03
2023-04-18T07:22:17.330Z,37.01
2023-04-18T07:23:17.321Z,37.06
2023-04-18T07:24:17.339Z,36.88
2023-04-18T07:25:17.313Z,36.90
2023-04-18T07:26:17.328Z,36.98
2023-04-18T07:27:17.351Z,36.87
2023-04-18T07:28:17.451Z,36.84
2023-04-18T07:29:17.343Z,37.04
2023-04-18T07:30:17.660Z,37.05
2023-04-18T07:31:17.381Z,37.06
2023-04-18T07:32:17.325Z,37.11
2023-04-18T07:33:17.263Z,36.27
2023-04-18T07:34:17.242Z,34.95
2023-04-18T07:35:17.654Z,33.53
2023-04-18T07:36:17.553Z,33.48
2023-04-18T07:37:17.287Z,33.36
2023-04-18T07:38:17.312Z,33.87
2023-04-18T07:39:17.324Z,34.34
2023-04-18T07:40:17.327Z,35.14
2023-04-18T07:41:17.336Z,35.08
2023-04-18T07:42:17.330Z,35.02
2023-04-18T07:43:18.104Z,34.98
2023-04-18T07:44:17.457Z,35.07
2023-04-18T07:45:17.363Z,34.82
2023-04-18T07:46:17.384Z,34.85
2023-04-18T07:47:21.968Z,34.50
2023-04-18T07:48:18.480Z,34.19
2023-04-18T07:49:17.437Z,34.25
2023-04-18T07:50:17.453Z,34.18
2023-04-18T07:51:17.460Z,34.16
2023-04-18T07:52:17.416Z,33.83
2023-04-18T07:53:17.526Z,33.57
2023-04-18T07:54:17.628Z,33.66
2023-04-18T07:55:17.399Z,33.45
2023-04-18T07:56:17.626Z,33.25
2023-04-18T07:57:17.493Z,33.41
2023-04-18T07:58:17.557Z,33.22
2023-04-18T07:59:17.572Z,32.61
2023-04-18T08:00:17.655Z,32.81
2023-04-18T08:01:17.673Z,32.86
2023-04-18T08:02:18.167Z,32.81
2023-04-18T08:03:17.999Z,32.81
2023-04-18T08:04:17.993Z,32.74
2023-04-18T08:05:17.880Z,32.79
2023-04-18T08:06:17.905Z,32.43
2023-04-18T08:07:17.962Z,32.22
2023-04-18T08:08:18.080Z,32.30
2023-04-18T08:09:20.079Z,32.25
2023-04-18T08:10:18.358Z,32.23
2023-04-18T08:11:18.345Z,32.33
2023-04-18T08:12:18.569Z,32.32
2023-04-18T08:13:18.474Z,32.01
2023-04-18T08:14:18.508Z,32.04
2023-04-18T08:15:18.580Z,32.15
2023-04-18T08:16:18.701Z,32.23
2023-04-18T08:17:18.588Z,32.22
2023-04-18T08:18:18.662Z,32.20
2023-04-18T08:19:19.087Z,31.91
2023-04-18T08:20:18.830Z,32.03
2023-04-18T08:21:18.735Z,31.87
2023-04-18T08:22:18.809Z,31.65
2023-04-18T08:23:18.805Z,31.49
2023-04-18T08:24:18.909Z,31.95
2023-04-18T08:25:18.918Z,31.69
2023-04-18T08:26:18.989Z,31.02
2023-04-18T08:27:18.922Z,30.43
2023-04-18T08:28:18.975Z,30.32
2023-04-18T08:29:18.986Z,30.24
2023-04-18T08:30:18.981Z,30.14
2023-04-18T08:31:19.103Z,30.01
2023-04-18T08:32:19.081Z,30.17
2023-04-18T08:33:19.073Z,30.30
2023-04-18T08:34:19.182Z,30.39
2023-04-18T08:35:19.141Z,30.46
2023-04-18T08:36:19.181Z,30.45
2023-04-18T08:37:19.218Z,30.46
2023-04-18T08:38:19.247Z,30.35
2023-04-18T08:39:19.251Z,30.41
2023-04-18T08:40:19.414Z,30.29
2023-04-18T08:41:19.376Z,30.33
2023-04-18T08:42:19.484Z,30.89
2023-04-18T08:43:19.609Z,31.49
2023-04-18T08:44:19.562Z,31.97
2023-04-18T08:45:19.566Z,32.19
2023-04-18T08:46:19.654Z,32.02
2023-04-18T08:47:19.689Z,32.07
2023-04-18T08:48:20.099Z,32.06
2023-04-18T08:49:19.729Z,32.20
2023-04-18T08:50:19.954Z,32.11
2023-04-18T08:51:19.886Z,32.09
2023-04-18T08:52:19.862Z,31.97
2023-04-18T08:53:20.236Z,32.00
2023-04-18T08:54:20.045Z,31.96
2023-04-18T08:55:19.979Z,31.87
2023-04-18T08:56:20.038Z,31.75
2023-04-18T08:57:20.047Z,31.85
2023-04-18T08:58:20.160Z,31.95
2023-04-18T08:59:20.122Z,32.17
2023-04-18T09:00:20.230Z,31.93
2023-04-18T09:01:20.285Z,32.03
2023-04-18T09:02:20.349Z,31.90
2023-04-18T09:03:20.365Z,32.00
2023-04-18T09:04:20.571Z,32.39
2023-04-18T09:05:20.456Z,32.29
2023-04-18T09:06:20.429Z,32.39
2023-04-18T09:07:20.480Z,32.31
2023-04-18T09:08:20.533Z,32.34
2023-04-18T09:09:20.618Z,32.43
2023-04-18T09:10:20.555Z,32.73
2023-04-18T09:11:20.612Z,32.75
2023-04-18T09:12:20.566Z,32.47
2023-04-18T09:13:20.802Z,31.91
2023-04-18T09:14:20.595Z,32.00
2023-04-18T09:15:20.614Z,31.96
2023-04-18T09:16:20.710Z,32.02
2023-04-18T09:17:20.584Z,32.03
2023-04-18T09:18:20.591Z,31.97
2023-04-18T09:19:20.674Z,32.04
2023-04-18T09:20:20.722Z,32.02
2023-04-18T09:21:20.670Z,32.16
2023-04-18T09:22:20.660Z,32.25
2023-04-18T09:23:20.694Z,32.25
2023-04-18T09:24:20.736Z,32.54
2023-04-18T09:25:20.754Z,32.22
2023-04-18T09:26:20.721Z,32.77
2023-04-18T09:27:21.132Z,32.75
2023-04-18T09:28:20.702Z,32.88
2023-04-18T09:29:20.729Z,32.85
2023-04-18T09:30:20.889Z,32.81
2023-04-18T09:31:20.795Z,32.93
2023-04-18T09:32:21.209Z,32.77
2023-04-18T09:33:20.807Z,32.03
2023-04-18T09:34:20.807Z,32.05
2023-04-18T09:35:20.780Z,32.03
2023-04-18T09:36:21.163Z,31.86
2023-04-18T09:37:20.779Z,32.01
2023-04-18T09:38:20.881Z,31.63
2023-04-18T09:39:20.815Z,32.19
2023-04-18T09:40:20.810Z,32.43
2023-04-18T09:41:21.691Z,32.65
2023-04-18T09:42:20.813Z,32.56
2023-04-18T09:43:20.839Z,32.49
2023-04-18T09:44:21.141Z,32.43
2023-04-18T09:45:20.965Z,32.33
2023-04-18T09:46:21.067Z,32.30
2023-04-18T09:47:21.135Z,32.52
2023-04-18T09:48:21.184Z,32.38
2023-04-18T09:49:21.229Z,32.66
2023-04-18T09:50:21.270Z,32.38
2023-04-18T09:51:21.695Z,32.22
2023-04-18T09:52:21.344Z,31.89
2023-04-18T09:53:21.458Z,31.83
2023-04-18T09:54:21.511Z,31.63
2023-04-18T09:55:21.552Z,31.54
2023-04-18T09:56:21.617Z,31.39
2023-04-18T09:57:21.736Z,31.35
2023-04-18T09:58:21.731Z,31.41
2023-04-18T09:59:21.832Z,31.38
2023-04-18T10:00:21.888Z,31.33
2023-04-18T10:01:22.020Z,31.26
2023-04-18T10:02:22.147Z,31.24
2023-04-18T10:03:22.237Z,31.13
2023-04-18T10:04:22.245Z,31.01
2023-04-18T10:05:22.246Z,31.02
2023-04-18T10:06:22.225Z,30.85
2023-04-18T10:07:22.315Z,30.79
2023-04-18T10:08:22.368Z,30.96
2023-04-18T10:09:22.434Z,31.08
2023-04-18T10:10:22.528Z,31.01
2023-04-18T10:11:22.589Z,31.06
2023-04-18T10:12:22.649Z,31.06
2023-04-18T10:13:22.652Z,31.07
2023-04-18T10:14:22.745Z,31.06
2023-04-18T10:15:22.838Z,30.80
2023-04-18T10:16:23.200Z,30.59
2023-04-18T10:17:23.025Z,30.54
2023-04-18T10:18:23.168Z,30.28
2023-04-18T10:19:23.001Z,30.26
2023-04-18T10:20:23.118Z,30.01
2023-04-18T10:21:23.033Z,29.91
2023-04-18T10:22:23.246Z,29.75
2023-04-18T10:23:23.041Z,29.71
2023-04-18T10:24:23.032Z,29.63
2023-04-18T10:25:23.072Z,29.67
2023-04-18T10:26:23.052Z,29.63
2023-04-18T10:27:23.162Z,29.59
2023-04-18T10:28:23.116Z,29.34
2023-04-18T10:29:24.037Z,29.28
2023-04-18T10:30:23.141Z,29.37
2023-04-18T10:31:23.274Z,29.51
2023-04-18T10:32:23.753Z,29.57
2023-04-18T10:33:30.429Z,29.52
2023-04-18T10:34:24.185Z,29.56
2023-04-18T10:35:23.137Z,29.47
2023-04-18T10:36:23.129Z,29.49
2023-04-18T10:37:23.143Z,29.40
2023-04-18T10:38:23.673Z,29.37
2023-04-18T10:39:23.157Z,29.27
2023-04-18T10:40:23.208Z,28.97
2023-04-18T10:41:23.101Z,29.03
2023-04-18T10:42:23.113Z,29.07
2023-04-18T10:43:23.120Z,28.96
2023-04-18T10:44:23.551Z,28.97
2023-04-18T10:45:23.092Z,28.89
2023-04-18T10:46:31.904Z,28.83
2023-04-18T10:47:24.216Z,28.70
2023-04-18T10:48:23.181Z,28.67
2023-04-18T10:49:25.893Z,28.71
2023-04-18T10:50:23.132Z,28.78
2023-04-18T10:51:23.077Z,28.84
2023-04-18T10:52:23.031Z,28.84
2023-04-18T10:53:23.195Z,28.82
2023-04-18T10:54:23.038Z,28.91
2023-04-18T10:55:22.998Z,28.95
2023-04-18T10:56:23.012Z,28.93
2023-04-18T10:57:22.977Z,28.96
2023-04-18T10:58:23.010Z,28.96
2023-04-18T10:59:23.216Z,29.01
2023-04-18T11:00:23.092Z,29.05
2023-04-18T11:01:23.120Z,29.01
2023-04-18T11:02:23.237Z,28.86
2023-04-18T11:03:23.161Z,28.75
2023-04-18T11:04:23.096Z,28.71
2023-04-18T11:05:23.107Z,28.78
2023-04-18T11:06:23.017Z,28.82
2023-04-18T11:07:23.098Z,28.71
2023-04-18T11:08:23.050Z,28.58
2023-04-18T11:09:23.109Z,28.61
2023-04-18T11:10:23.176Z,28.58
2023-04-18T11:11:23.007Z,28.63
2023-04-18T11:12:23.012Z,28.69
2023-04-18T11:13:23.068Z,28.69
2023-04-18T11:14:23.011Z,28.73
2023-04-18T11:15:23.027Z,28.62
2023-04-18T11:16:23.101Z,28.53
2023-04-18T11:17:23.066Z,28.58
2023-04-18T11:18:22.946Z,28.65
2023-04-18T11:19:23.281Z,28.68
2023-04-18T11:20:23.084Z,28.70
2023-04-18T11:21:22.976Z,28.70
2023-04-18T11:22:22.937Z,28.63
2023-04-18T11:23:23.011Z,28.69
2023-04-18T11:24:23.244Z,28.59
2023-04-18T11:25:24.290Z,28.56
2023-04-18T11:26:22.979Z,28.78
2023-04-18T11:27:22.916Z,28.83
2023-04-18T11:28:22.918Z,28.84
2023-04-18T11:29:22.926Z,28.75
2023-04-18T11:30:23.191Z,28.47
2023-04-18T11:31:22.987Z,28.53
2023-04-18T11:32:23.195Z,28.63
2023-04-18T11:33:23.070Z,28.67
2023-04-18T11:34:23.115Z,28.83
2023-04-18T11:35:23.186Z,28.50
2023-04-18T11:36:23.180Z,28.63
2023-04-18T11:37:23.242Z,28.64
2023-04-18T11:38:24.299Z,28.71
2023-04-18T11:39:23.296Z,28.79
2023-04-18T11:40:23.392Z,28.81
2023-04-18T11:41:23.417Z,28.75
2023-04-18T11:42:23.683Z,28.72
2023-04-18T11:43:23.516Z,28.77
2023-04-18T11:44:23.525Z,28.77
2023-04-18T11:45:24.158Z,28.62
2023-04-18T11:46:23.639Z,28.50
2023-04-18T11:47:23.689Z,28.60
2023-04-18T11:48:23.652Z,28.62
2023-04-18T11:49:23.729Z,28.52
2023-04-18T11:50:23.881Z,28.55
2023-04-18T11:51:23.855Z,28.33
2023-04-18T11:52:23.869Z,28.27
2023-04-18T11:53:23.905Z,28.06
2023-04-18T11:54:23.892Z,28.28
2023-04-18T11:55:24.062Z,29.24
2023-04-18T11:56:23.978Z,29.64
2023-04-18T11:57:24.003Z,29.84
2023-04-18T11:58:23.994Z,30.13
2023-04-18T11:59:23.995Z,30.03
2023-04-18T12:00:24.040Z,30.07
2023-04-18T12:01:24.011Z,30.25
2023-04-18T12:02:24.115Z,29.91
2023-04-18T12:03:24.461Z,29.91
2023-04-18T12:04:24.256Z,29.90
2023-04-18T12:05:24.396Z,29.75
2023-04-18T12:06:24.340Z,30.03
2023-04-18T12:07:24.192Z,29.98
2023-04-18T12:08:24.259Z,29.92
2023-04-18T12:09:24.326Z,30.08
2023-04-18T12:10:24.462Z,30.21
2023-04-18T12:11:24.476Z,30.14
2023-04-18T12:12:24.482Z,30.25
2023-04-18T12:13:24.612Z,30.29
2023-04-18T12:14:24.659Z,30.36
2023-04-18T12:15:24.661Z,30.37
2023-04-18T12:16:24.764Z,30.41
2023-04-18T12:17:24.811Z,30.50
2023-04-18T12:18:24.854Z,30.53
2023-04-18T12:19:24.877Z,30.61
2023-04-18T12:20:24.900Z,30.68
2023-04-18T12:21:24.970Z,30.67
2023-04-18T12:22:24.980Z,30.73
2023-04-18T12:23:25.028Z,30.78
2023-04-18T12:24:25.098Z,30.85
2023-04-18T12:25:27.353Z,30.83
2023-04-18T12:26:25.059Z,30.90
2023-04-18T12:27:25.122Z,30.97
2023-04-18T12:28:25.062Z,31.05
2023-04-18T12:29:25.087Z,31.08
2023-04-18T12:30:25.023Z,31.12
2023-04-18T12:31:25.046Z,31.23
2023-04-18T12:32:25.083Z,31.13
2023-04-18T12:33:24.984Z,31.22
2023-04-18T12:34:25.053Z,31.35
2023-04-18T12:35:25.054Z,31.38
2023-04-18T12:36:24.996Z,31.43
2023-04-18T12:37:24.972Z,31.45
2023-04-18T12:38:24.968Z,31.49
2023-04-18T12:39:24.937Z,31.51
2023-04-18T12:40:24.961Z,31.58
2023-04-18T12:41:24.940Z,31.59
2023-04-18T12:42:24.993Z,31.68
2023-04-18T12:43:24.902Z,31.69
2023-04-18T12:44:24.932Z,31.74
2023-04-18T12:45:24.913Z,31.77
2023-04-18T12:46:24.999Z,31.80
2023-04-18T12:47:24.989Z,31.91
2023-04-18T12:48:24.888Z,31.91
2023-04-18T12:49:24.890Z,31.94
2023-04-18T12:50:24.936Z,31.98
2023-04-18T12:51:24.875Z,32.02
2023-04-18T12:52:24.862Z,32.02